Abrolhos Island North Island, Australia
Current Conditions -  °F | °C
As of 8:00 PM on Sunday 25 Jan 2015 (Local Time) from YGEL Reporting Station
Clear Clear  
Wind Chill: 73°   Ceiling: Unl
Heat Index: 73°   Visibility: 6mi
Dew Point: 63°   Wind: 22mph
Humidity: 69%   Direction: 170°S
Pressure: 29.77"   Gusts: NA
Location:  28.3°S, 113.58°E
Report Text: YGEL 251200Z AUTO 17019KT 9999 // NCD 23/17 Q1008
Loading
Personal Weather Stations






























Interactive Weather Map New forecast layout! Learn more

10-Day Weather Forecast

Advertisements
Track Severe Weather on mobile